Time;durP1;ratioP1;P1;durP2;ratioP2;P2;SDS_P1;SDS_P2;PMS_P1;PMS_P2;Temp;Humidity;BMP_temperature;BMP_pressure;BME280_temperature;BME280_humidity;BME280_pressure;Samples;Min_cycle;Max_cycle;Signal;HPM_P1;HPM_P2
2024/03/14 00:01:40;;;;;;;;;19.00;19.00;;;;;;;;5090020;27;45459;-53
2024/03/14 00:04:05;;;;;;;;;17.33;15.00;;;;;;;;5080138;27;45290;-54
2024/03/14 00:06:31;;;;;;;;;17.33;16.67;;;;;;;;5085682;27;45305;-54
2024/03/14 00:08:57;;;;;;;;;16.33;15.00;;;;;;;;5087187;27;47201;-54
2024/03/14 00:11:22;;;;;;;;;19.33;18.00;;;;;;;;5082945;27;45822;-54
2024/03/14 00:13:47;;;;;;;;;20.67;19.00;;;;;;;;5081584;27;46607;-53
2024/03/14 00:16:13;;;;;;;;;13.00;13.00;;;;;;;;5086355;27;45314;-54
2024/03/14 00:18:39;;;;;;;;;15.00;12.67;;;;;;;;5090655;27;47026;-54
2024/03/14 00:21:09;;;;;;;;;17.33;17.33;;;;;;;;5089181;27;45243;-53
2024/03/14 00:23:35;;;;;;;;;19.00;17.33;;;;;;;;5083177;27;45531;-54
2024/03/14 00:26:00;;;;;;;;;19.33;16.33;;;;;;;;5089274;27;45256;-54
2024/03/14 00:28:26;;;;;;;;;18.00;14.67;;;;;;;;5090683;27;48463;-54
2024/03/14 00:30:51;;;;;;;;;12.00;12.00;;;;;;;;5091760;27;45300;-54
2024/03/14 00:33:16;;;;;;;;;17.33;15.00;;;;;;;;5091531;27;45369;-54
2024/03/14 00:35:41;;;;;;;;;18.67;15.00;;;;;;;;5081214;27;45555;-54
2024/03/14 00:38:07;;;;;;;;;13.00;12.67;;;;;;;;5090753;27;48313;-54
2024/03/14 00:40:35;;;;;;;;;15.00;14.33;;;;;;;;5084485;27;45554;-53
2024/03/14 00:43:00;;;;;;;;;17.67;14.00;;;;;;;;5089104;27;45373;-54
2024/03/14 00:45:25;;;;;;;;;14.00;13.33;;;;;;;;5087924;27;45285;-52
2024/03/14 00:47:51;;;;;;;;;15.67;15.00;;;;;;;;5083326;27;46455;-54
2024/03/14 00:50:16;;;;;;;;;16.67;13.67;;;;;;;;5080694;27;45377;-53
2024/03/14 00:52:41;;;;;;;;;18.00;13.67;;;;;;;;5083831;27;45305;-53
2024/03/14 00:55:08;;;;;;;;;11.33;11.33;;;;;;;;5084571;27;45457;-54
2024/03/14 00:57:34;;;;;;;;;16.67;14.00;;;;;;;;5084516;27;46280;-54
2024/03/14 00:59:59;;;;;;;;;14.33;13.00;;;;;;;;5081545;27;45488;-54
2024/03/14 01:02:26;;;;;;;;;19.00;15.67;;;;;;;;5090585;27;45357;-53
2024/03/14 01:04:53;;;;;;;;;17.33;14.67;;;;;;;;5083166;27;45441;-54
2024/03/14 01:07:18;;;;;;;;;14.33;14.33;;;;;;;;5084228;27;45546;-53
2024/03/14 01:09:44;;;;;;;;;19.33;15.00;;;;;;;;5083179;27;45315;-54
2024/03/14 01:12:09;;;;;;;;;15.67;15.67;;;;;;;;5083182;27;45195;-53
2024/03/14 01:14:34;;;;;;;;;16.00;12.67;;;;;;;;5091537;27;45571;-54
2024/03/14 01:16:59;;;;;;;;;15.00;13.67;;;;;;;;5092320;27;46457;-53
2024/03/14 01:19:25;;;;;;;;;14.33;14.00;;;;;;;;5083526;27;45215;-54
2024/03/14 01:21:51;;;;;;;;;22.00;15.33;;;;;;;;5092110;27;45499;-52
2024/03/14 01:24:16;;;;;;;;;14.33;14.33;;;;;;;;5079788;27;45333;-53
2024/03/14 01:26:41;;;;;;;;;13.00;11.00;;;;;;;;5085879;27;45438;-53
2024/03/14 01:29:07;;;;;;;;;16.00;16.00;;;;;;;;5083074;27;45361;-54
2024/03/14 01:31:32;;;;;;;;;15.67;14.33;;;;;;;;5089234;27;45310;-51
2024/03/14 01:33:57;;;;;;;;;15.67;14.67;;;;;;;;5086172;27;45479;-53
2024/03/14 01:36:23;;;;;;;;;17.67;15.33;;;;;;;;5085038;27;45563;-54
2024/03/14 01:38:48;;;;;;;;;22.00;19.33;;;;;;;;5085716;27;45377;-53
2024/03/14 01:41:19;;;;;;;;;16.00;13.00;;;;;;;;5082380;27;45277;-54
2024/03/14 01:43:58;;;;;;;;;19.33;17.00;;;;;;;;5084738;27;45438;-54
2024/03/14 01:46:25;;;;;;;;;21.67;16.00;;;;;;;;5092617;27;45379;-54
2024/03/14 01:48:50;;;;;;;;;20.33;16.00;;;;;;;;5072024;27;45350;-54
2024/03/14 01:51:15;;;;;;;;;17.00;15.67;;;;;;;;5091026;27;45396;-54
2024/03/14 01:53:40;;;;;;;;;13.00;13.00;;;;;;;;5088779;27;45467;-54
2024/03/14 01:56:06;;;;;;;;;17.00;14.67;;;;;;;;5079877;27;45545;-54
2024/03/14 01:58:32;;;;;;;;;17.67;17.67;;;;;;;;5080650;27;45451;-54
2024/03/14 02:00:57;;;;;;;;;19.67;16.33;;;;;;;;5086673;27;45384;-53
2024/03/14 02:03:22;;;;;;;;;16.33;16.33;;;;;;;;5079264;27;45320;-53
2024/03/14 02:05:54;;;;;;;;;15.67;15.33;;;;;;;;5090580;27;45359;-53
2024/03/14 02:08:20;;;;;;;;;15.67;15.67;;;;;;;;5085661;27;45730;-53
2024/03/14 02:10:45;;;;;;;;;17.33;16.00;;;;;;;;5082878;27;45374;-54
2024/03/14 02:13:10;;;;;;;;;18.00;15.33;;;;;;;;5084529;27;45376;-53
2024/03/14 02:15:35;;;;;;;;;17.33;15.00;;;;;;;;5090239;27;47396;-51
2024/03/14 02:18:01;;;;;;;;;18.00;14.00;;;;;;;;5092903;27;45192;-54
2024/03/14 02:20:26;;;;;;;;;17.67;15.67;;;;;;;;5097027;27;45412;-54
2024/03/14 02:22:51;;;;;;;;;13.67;12.00;;;;;;;;5079390;27;45250;-54
2024/03/14 02:25:18;;;;;;;;;11.67;11.33;;;;;;;;5091148;27;46706;-52
2024/03/14 02:27:43;;;;;;;;;15.33;15.33;;;;;;;;5090535;27;45223;-53
2024/03/14 02:30:09;;;;;;;;;13.33;13.33;;;;;;;;5085484;27;45560;-53
2024/03/14 02:32:35;;;;;;;;;14.00;13.33;;;;;;;;5077910;27;45247;-54
2024/03/14 02:35:03;;;;;;;;;14.00;14.00;;;;;;;;5088752;27;46105;-52
2024/03/14 02:37:30;;;;;;;;;14.00;11.33;;;;;;;;5080357;27;45385;-54
2024/03/14 02:39:55;;;;;;;;;18.00;15.00;;;;;;;;5083008;27;45441;-54
2024/03/14 02:42:20;;;;;;;;;14.33;14.33;;;;;;;;5077983;27;45600;-53
2024/03/14 02:44:47;;;;;;;;;12.67;11.67;;;;;;;;5081308;27;45415;-54
2024/03/14 02:47:13;;;;;;;;;13.00;13.00;;;;;;;;5073243;27;45235;-53
2024/03/14 02:49:38;;;;;;;;;11.00;11.00;;;;;;;;5086117;27;45516;-54
2024/03/14 02:52:03;;;;;;;;;11.33;11.33;;;;;;;;5080924;27;45312;-53
2024/03/14 02:54:31;;;;;;;;;16.00;14.67;;;;;;;;5089344;27;46346;-52
2024/03/14 02:56:57;;;;;;;;;16.33;15.67;;;;;;;;5076282;27;45493;-53
2024/03/14 02:59:22;;;;;;;;;18.67;15.33;;;;;;;;5083658;27;46358;-54
2024/03/14 03:01:50;;;;;;;;;14.00;14.00;;;;;;;;5085408;27;45202;-53
2024/03/14 03:04:15;;;;;;;;;13.00;11.67;;;;;;;;5091946;27;46201;-54
2024/03/14 03:06:55;;;;;;;;;15.00;13.67;;;;;;;;5088909;27;45136;-54
2024/03/14 03:09:21;;;;;;;;;14.67;14.67;;;;;;;;5071516;27;45341;-52
2024/03/14 03:11:46;;;;;;;;;11.00;11.00;;;;;;;;5080127;27;45374;-54
2024/03/14 03:14:11;;;;;;;;;18.33;14.00;;;;;;;;5079234;27;46052;-54
2024/03/14 03:16:37;;;;;;;;;16.00;16.00;;;;;;;;5078367;27;45368;-54
2024/03/14 03:19:02;;;;;;;;;17.00;15.33;;;;;;;;5090382;27;45488;-54
2024/03/14 03:21:29;;;;;;;;;16.33;16.33;;;;;;;;5090300;27;45290;-53
2024/03/14 03:23:55;;;;;;;;;13.33;11.67;;;;;;;;5083733;27;47234;-53
2024/03/14 03:26:20;;;;;;;;;14.67;13.00;;;;;;;;5088948;27;45344;-51
2024/03/14 03:28:49;;;;;;;;;15.67;12.33;;;;;;;;5087110;27;45703;-53
2024/03/14 03:31:14;;;;;;;;;14.67;12.33;;;;;;;;5083197;27;45286;-53
2024/03/14 03:33:39;;;;;;;;;16.67;13.00;;;;;;;;5086799;27;45576;-54
2024/03/14 03:36:04;;;;;;;;;18.00;15.33;;;;;;;;5089656;27;45335;-54
2024/03/14 03:38:33;;;;;;;;;14.33;12.00;;;;;;;;5090769;27;45477;-53
2024/03/14 03:40:59;;;;;;;;;14.33;12.00;;;;;;;;5083963;27;45439;-54
2024/03/14 03:43:25;;;;;;;;;16.67;13.00;;;;;;;;5083351;27;46381;-53
2024/03/14 03:45:51;;;;;;;;;12.67;8.67;;;;;;;;5088197;27;45461;-54
2024/03/14 03:48:16;;;;;;;;;17.33;14.33;;;;;;;;5079947;27;45681;-54
2024/03/14 03:50:41;;;;;;;;;18.33;15.67;;;;;;;;5085817;27;45838;-53
2024/03/14 03:53:07;;;;;;;;;15.00;14.00;;;;;;;;5090177;27;45870;-54
2024/03/14 03:55:32;;;;;;;;;12.67;12.67;;;;;;;;5089645;27;45281;-53
2024/03/14 03:57:58;;;;;;;;;15.33;13.33;;;;;;;;5092794;27;45472;-53
2024/03/14 04:00:43;;;;;;;;;10.33;8.33;;;;;;;;5089615;27;45653;-53
2024/03/14 04:03:11;;;;;;;;;13.00;13.00;;;;;;;;5083484;27;45463;-50
2024/03/14 04:05:36;;;;;;;;;13.67;11.67;;;;;;;;5096366;27;45362;-53
2024/03/14 04:08:02;;;;;;;;;12.67;12.33;;;;;;;;5093434;27;45487;-54
2024/03/14 04:10:27;;;;;;;;;13.00;11.33;;;;;;;;5088572;27;45338;-53
2024/03/14 04:12:53;;;;;;;;;17.33;14.00;;;;;;;;5083760;27;46488;-52
2024/03/14 04:15:19;;;;;;;;;16.00;15.00;;;;;;;;5093210;27;45371;-53
2024/03/14 04:17:45;;;;;;;;;21.33;16.67;;;;;;;;5091726;27;45724;-51
2024/03/14 04:20:19;;;;;;;;;15.00;12.33;;;;;;;;5080359;27;45749;-53
2024/03/14 04:22:44;;;;;;;;;17.00;16.33;;;;;;;;5083463;27;46280;-53
2024/03/14 04:25:17;;;;;;;;;13.33;11.33;;;;;;;;5084677;27;45315;-54
2024/03/14 04:27:43;;;;;;;;;16.00;16.00;;;;;;;;5075698;28;45374;-52
2024/03/14 04:30:12;;;;;;;;;17.67;17.00;;;;;;;;5089079;27;45295;-54
2024/03/14 04:32:38;;;;;;;;;20.33;15.00;;;;;;;;5076194;27;47042;-52
2024/03/14 04:35:03;;;;;;;;;21.00;19.00;;;;;;;;5089348;27;45211;-53
2024/03/14 04:37:29;;;;;;;;;20.67;18.67;;;;;;;;5091165;27;45656;-53
2024/03/14 04:39:54;;;;;;;;;16.00;16.00;;;;;;;;5093755;27;45408;-54
2024/03/14 04:42:20;;;;;;;;;17.33;15.00;;;;;;;;5079941;27;45401;-53
2024/03/14 04:44:45;;;;;;;;;17.00;15.33;;;;;;;;5080832;27;45524;-53
2024/03/14 04:47:11;;;;;;;;;15.00;14.33;;;;;;;;5087280;27;45469;-54
2024/03/14 04:49:36;;;;;;;;;15.33;15.33;;;;;;;;5091493;27;45384;-53
2024/03/14 04:52:02;;;;;;;;;14.67;13.33;;;;;;;;5082648;27;46341;-54
2024/03/14 04:54:27;;;;;;;;;12.67;12.33;;;;;;;;5082467;27;45737;-54
2024/03/14 04:56:52;;;;;;;;;14.67;14.00;;;;;;;;5081125;27;45271;-52
2024/03/14 04:59:19;;;;;;;;;13.33;10.67;;;;;;;;5085617;27;45497;-54
2024/03/14 05:01:44;;;;;;;;;12.67;10.67;;;;;;;;5084305;27;46209;-53
2024/03/14 05:04:09;;;;;;;;;11.00;11.00;;;;;;;;5089679;27;45350;-53
2024/03/14 05:06:34;;;;;;;;;9.00;7.00;;;;;;;;5093089;27;45533;-53
2024/03/14 05:09:00;;;;;;;;;10.00;10.00;;;;;;;;5086714;27;45469;-54
2024/03/14 05:11:25;;;;;;;;;15.33;11.00;;;;;;;;5084833;27;47047;-53
2024/03/14 05:13:56;;;;;;;;;8.00;8.00;;;;;;;;5089811;27;45453;-54
2024/03/14 05:16:22;;;;;;;;;10.00;9.00;;;;;;;;5090067;27;45293;-54
2024/03/14 05:18:47;;;;;;;;;11.33;9.67;;;;;;;;5095384;27;45324;-53
2024/03/14 05:21:13;;;;;;;;;8.33;8.33;;;;;;;;5083532;27;47272;-53
2024/03/14 05:23:38;;;;;;;;;10.00;10.00;;;;;;;;5088061;27;45554;-54
2024/03/14 05:26:05;;;;;;;;;11.67;11.67;;;;;;;;5081375;27;45468;-53
2024/03/14 05:28:31;;;;;;;;;8.00;8.00;;;;;;;;5095615;27;45383;-54
2024/03/14 05:30:56;;;;;;;;;10.33;9.67;;;;;;;;5081260;27;45435;-54
2024/03/14 05:33:21;;;;;;;;;9.00;8.67;;;;;;;;5080396;27;45432;-53
2024/03/14 05:35:46;;;;;;;;;9.33;9.00;;;;;;;;5081069;27;45543;-53
2024/03/14 05:38:13;;;;;;;;;9.33;9.33;;;;;;;;5082365;27;46352;-54
2024/03/14 05:40:38;;;;;;;;;6.33;6.33;;;;;;;;5086911;27;45346;-51
2024/03/14 05:43:03;;;;;;;;;13.33;11.33;;;;;;;;5089086;27;45435;-52
2024/03/14 05:45:34;;;;;;;;;16.00;10.33;;;;;;;;5079736;27;45566;-50
2024/03/14 05:48:09;;;;;;;;;11.33;10.00;;;;;;;;5085825;27;45394;-54
2024/03/14 05:50:34;;;;;;;;;8.67;8.67;;;;;;;;5082765;27;46778;-55
2024/03/14 05:53:00;;;;;;;;;12.67;10.00;;;;;;;;5075107;27;45307;-54
2024/03/14 05:55:25;;;;;;;;;10.00;10.00;;;;;;;;5084426;27;45405;-54
2024/03/14 05:57:50;;;;;;;;;10.33;10.00;;;;;;;;5086482;27;45446;-54
2024/03/14 06:00:20;;;;;;;;;9.67;8.00;;;;;;;;5084592;27;45583;-54
2024/03/14 06:02:46;;;;;;;;;11.67;10.00;;;;;;;;5086688;27;45461;-54
2024/03/14 06:05:11;;;;;;;;;10.67;6.67;;;;;;;;5079817;27;45346;-54
2024/03/14 06:07:36;;;;;;;;;12.67;10.33;;;;;;;;5085203;27;45408;-54
2024/03/14 06:10:03;;;;;;;;;10.67;9.00;;;;;;;;5080170;27;45506;-51
2024/03/14 06:12:28;;;;;;;;;13.33;12.33;;;;;;;;5078745;27;45516;-53
2024/03/14 06:14:54;;;;;;;;;9.00;8.67;;;;;;;;5079334;27;45362;-54
2024/03/14 06:17:19;;;;;;;;;13.67;10.33;;;;;;;;5086677;27;45373;-53
2024/03/14 06:19:46;;;;;;;;;15.67;12.33;;;;;;;;5080165;27;46413;-52
2024/03/14 06:22:14;;;;;;;;;12.33;10.33;;;;;;;;5086731;27;45885;-54
2024/03/14 06:24:39;;;;;;;;;10.33;10.33;;;;;;;;5078374;27;45517;-51
2024/03/14 06:27:05;;;;;;;;;17.00;13.67;;;;;;;;5081576;27;45231;-53
2024/03/14 06:29:31;;;;;;;;;10.67;10.00;;;;;;;;5075700;27;46995;-51
2024/03/14 06:31:56;;;;;;;;;16.00;11.67;;;;;;;;5075672;27;45383;-53
2024/03/14 06:34:21;;;;;;;;;13.67;12.00;;;;;;;;5075054;27;45415;-53
2024/03/14 06:36:47;;;;;;;;;14.00;12.33;;;;;;;;5079709;27;45401;-52
2024/03/14 06:39:17;;;;;;;;;13.67;10.33;;;;;;;;5073527;27;45446;-56
2024/03/14 06:41:42;;;;;;;;;9.67;9.67;;;;;;;;5071913;27;46381;-54
2024/03/14 06:44:08;;;;;;;;;12.50;9.50;;;;;;;;5072780;27;45866;-54
2024/03/14 06:46:33;;;;;;;;;16.00;14.00;;;;;;;;5075187;27;45510;-56
2024/03/14 06:48:59;;;;;;;;;11.67;9.67;;;;;;;;5072946;28;45389;-56
2024/03/14 06:51:24;;;;;;;;;13.33;11.67;;;;;;;;5078652;27;45626;-51
2024/03/14 06:53:50;;;;;;;;;14.00;12.67;;;;;;;;5077044;27;45486;-54
2024/03/14 06:56:17;;;;;;;;;13.00;13.00;;;;;;;;5071337;27;45800;-51
2024/03/14 06:58:44;;;;;;;;;14.00;11.67;;;;;;;;5071577;27;46516;-53
2024/03/14 07:01:09;;;;;;;;;15.00;13.00;;;;;;;;5073710;27;45536;-52
2024/03/14 07:03:35;;;;;;;;;11.00;11.00;;;;;;;;5074364;27;45546;-50
2024/03/14 07:06:00;;;;;;;;;17.67;14.33;;;;;;;;5074625;27;45379;-49
2024/03/14 07:08:28;;;;;;;;;13.33;11.33;;;;;;;;5076483;27;47161;-54
2024/03/14 07:10:53;;;;;;;;;14.67;14.67;;;;;;;;5076795;27;46192;-56
2024/03/14 07:13:18;;;;;;;;;17.33;14.33;;;;;;;;5081954;27;45476;-50
2024/03/14 07:15:44;;;;;;;;;19.33;13.67;;;;;;;;5081944;27;45452;-50
2024/03/14 07:18:11;;;;;;;;;19.67;15.67;;;;;;;;5079988;27;46332;-55
2024/03/14 07:20:37;;;;;;;;;16.00;13.67;;;;;;;;5083168;27;45626;-53
2024/03/14 07:23:03;;;;;;;;;15.33;12.67;;;;;;;;5079252;27;45261;-51
2024/03/14 07:25:28;;;;;;;;;16.67;15.00;;;;;;;;5082736;27;45364;-57
2024/03/14 07:27:54;;;;;;;;;17.00;15.67;;;;;;;;5084344;27;45978;-51
2024/03/14 07:30:24;;;;;;;;;17.33;17.33;;;;;;;;5081364;27;45777;-58
2024/03/14 07:32:50;;;;;;;;;19.67;19.00;;;;;;;;5082541;27;45484;-49
2024/03/14 07:35:17;;;;;;;;;19.00;18.00;;;;;;;;5077646;27;45402;-47
2024/03/14 07:37:44;;;;;;;;;14.00;13.33;;;;;;;;5081045;27;46304;-52
2024/03/14 07:40:11;;;;;;;;;24.00;22.00;;;;;;;;5079898;27;45512;-49
2024/03/14 07:42:39;;;;;;;;;20.33;18.00;;;;;;;;5081363;27;45716;-47
2024/03/14 07:45:07;;;;;;;;;14.00;13.00;;;;;;;;5076465;27;45413;-51
2024/03/14 07:47:32;;;;;;;;;17.67;17.00;;;;;;;;5082459;27;46087;-47
2024/03/14 07:49:57;;;;;;;;;19.33;17.67;;;;;;;;5076599;27;45507;-48
2024/03/14 07:52:22;;;;;;;;;14.33;13.67;;;;;;;;5076028;27;45504;-51
2024/03/14 07:54:48;;;;;;;;;19.67;17.67;;;;;;;;5083802;27;45721;-48
2024/03/14 07:57:14;;;;;;;;;19.67;16.67;;;;;;;;5080738;27;45975;-50
2024/03/14 07:59:41;;;;;;;;;19.00;16.00;;;;;;;;5084904;27;45519;-49
2024/03/14 08:02:07;;;;;;;;;15.50;15.50;;;;;;;;5081657;27;45530;-48
2024/03/14 08:04:33;;;;;;;;;25.00;21.00;;;;;;;;5089820;27;45385;-50
2024/03/14 08:06:59;;;;;;;;;22.33;18.67;;;;;;;;5083142;27;45590;-52
2024/03/14 08:09:26;;;;;;;;;33.33;27.00;;;;;;;;5084654;27;45337;-50
2024/03/14 08:11:51;;;;;;;;;24.00;20.67;;;;;;;;5080775;27;45460;-51
2024/03/14 08:14:16;;;;;;;;;20.67;18.33;;;;;;;;5081479;27;45717;-51
2024/03/14 08:16:42;;;;;;;;;22.00;20.00;;;;;;;;5084737;27;45540;-47
2024/03/14 08:19:09;;;;;;;;;19.33;17.33;;;;;;;;5085007;27;45392;-51
2024/03/14 08:21:34;;;;;;;;;20.33;20.33;;;;;;;;5083321;27;45422;-50
2024/03/14 08:24:09;;;;;;;;;21.67;18.67;;;;;;;;5083578;27;45393;-48
2024/03/14 08:26:35;;;;;;;;;21.00;18.00;;;;;;;;5082768;27;46462;-52
2024/03/14 08:29:02;;;;;;;;;22.00;16.67;;;;;;;;5083520;27;45420;-51
2024/03/14 08:31:27;;;;;;;;;18.33;16.00;;;;;;;;5082345;27;45451;-52
2024/03/14 08:33:55;;;;;;;;;19.00;15.33;;;;;;;;5076773;27;45410;-48
2024/03/14 08:36:21;;;;;;;;;21.33;18.67;;;;;;;;5075905;27;47952;-53
2024/03/14 08:38:48;;;;;;;;;16.00;16.00;;;;;;;;5078440;27;45488;-49
2024/03/14 08:41:13;;;;;;;;;11.33;11.33;;;;;;;;5085360;27;45348;-52
2024/03/14 08:43:38;;;;;;;;;13.00;13.00;;;;;;;;5082651;27;45377;-52
2024/03/14 08:46:04;;;;;;;;;13.33;11.00;;;;;;;;5077112;27;45590;-52
2024/03/14 08:48:29;;;;;;;;;18.33;13.00;;;;;;;;5079444;27;46067;-51
2024/03/14 08:50:54;;;;;;;;;18.00;14.33;;;;;;;;5085413;27;45476;-49
2024/03/14 08:53:19;;;;;;;;;19.00;15.67;;;;;;;;5075486;27;45556;-52
2024/03/14 08:55:54;;;;;;;;;14.67;13.00;;;;;;;;5083945;27;45937;-51
2024/03/14 08:58:25;;;;;;;;;12.67;12.00;;;;;;;;5080240;27;45523;-50
2024/03/14 09:00:50;;;;;;;;;15.67;15.33;;;;;;;;5081713;27;45582;-52
2024/03/14 09:03:15;;;;;;;;;14.00;11.67;;;;;;;;5084089;27;46110;-51
2024/03/14 09:05:42;;;;;;;;;18.00;14.00;;;;;;;;5087005;27;45499;-51
2024/03/14 09:08:07;;;;;;;;;19.67;14.67;;;;;;;;5082252;27;45424;-51
2024/03/14 09:10:33;;;;;;;;;17.33;15.33;;;;;;;;5084550;27;45302;-51
2024/03/14 09:12:59;;;;;;;;;17.33;13.33;;;;;;;;5083917;27;45805;-52
2024/03/14 09:15:24;;;;;;;;;16.33;13.00;;;;;;;;5081682;27;46380;-52
2024/03/14 09:17:50;;;;;;;;;13.67;12.67;;;;;;;;5079806;27;45578;-52
2024/03/14 09:20:16;;;;;;;;;11.00;11.00;;;;;;;;5084251;27;45377;-52
2024/03/14 09:22:43;;;;;;;;;16.00;14.00;;;;;;;;5083913;27;46054;-49
2024/03/14 09:25:09;;;;;;;;;13.00;10.00;;;;;;;;5079510;27;45675;-50
2024/03/14 09:27:34;;;;;;;;;11.00;10.00;;;;;;;;5081848;27;45419;-50
2024/03/14 09:30:00;;;;;;;;;14.00;14.00;;;;;;;;5080199;27;45277;-60
2024/03/14 09:32:29;;;;;;;;;13.33;12.00;;;;;;;;5080249;27;45418;-60
2024/03/14 09:34:55;;;;;;;;;13.00;12.00;;;;;;;;5080750;27;46832;-60
2024/03/14 09:37:25;;;;;;;;;13.67;10.67;;;;;;;;5079257;27;45474;-57
2024/03/14 09:39:50;;;;;;;;;11.33;11.33;;;;;;;;5078645;27;45595;-57
2024/03/14 09:42:17;;;;;;;;;12.67;11.33;;;;;;;;5079897;27;45593;-57
2024/03/14 09:44:43;;;;;;;;;12.67;12.67;;;;;;;;5078649;27;46100;-58
2024/03/14 09:47:21;;;;;;;;;14.00;12.33;;;;;;;;5079714;27;45842;-57
2024/03/14 09:49:52;;;;;;;;;12.67;11.00;;;;;;;;5081806;27;45765;-58
2024/03/14 09:52:18;;;;;;;;;14.00;13.67;;;;;;;;5078983;27;45455;-58
2024/03/14 09:54:44;;;;;;;;;16.67;10.33;;;;;;;;5081539;27;46442;-58
2024/03/14 09:57:10;;;;;;;;;13.67;13.67;;;;;;;;5080354;27;45487;-58
2024/03/14 09:59:35;;;;;;;;;9.33;8.00;;;;;;;;5079920;27;45411;-58
2024/03/14 10:02:01;;;;;;;;;12.00;9.50;;;;;;;;5080768;27;45600;-58
2024/03/14 10:04:28;;;;;;;;;10.25;10.25;;;;;;;;5075261;27;48035;-57
2024/03/14 10:06:53;;;;;;;;;11.50;11.25;;;;;;;;5079345;27;45423;-58
2024/03/14 10:09:22;;;;;;;;;13.25;10.00;;;;;;;;5079018;27;45399;-57
2024/03/14 10:11:48;;;;;;;;;12.75;11.75;;;;;;;;5079604;27;45457;-58
2024/03/14 10:14:22;;;;;;;;;14.25;12.25;;;;;;;;5074898;27;46902;-58
2024/03/14 10:16:50;;;;;;;;;12.25;11.00;;;;;;;;5070272;27;45429;-58
2024/03/14 10:19:15;;;;;;;;;12.50;10.75;;;;;;;;5075499;27;45895;-58
2024/03/14 10:21:41;;;;;;;;;8.25;8.00;;;;;;;;5073693;27;45521;-58
2024/03/14 10:24:09;;;;;;;;;12.25;11.00;;;;;;;;5077245;27;46236;-58
2024/03/14 10:26:34;;;;;;;;;12.75;11.50;;;;;;;;5071782;27;45393;-58
2024/03/14 10:29:01;;;;;;;;;15.25;13.00;;;;;;;;5065192;28;45148;-58
2024/03/14 10:31:26;;;;;;;;;14.00;12.25;;;;;;;;5076869;27;45272;-58
2024/03/14 10:33:53;;;;;;;;;10.75;8.75;;;;;;;;5071981;27;45241;-59
2024/03/14 10:36:19;;;;;;;;;8.00;7.25;;;;;;;;5072494;27;45487;-58
2024/03/14 10:38:45;;;;;;;;;9.75;9.00;;;;;;;;5078435;27;45845;-58
2024/03/14 10:41:14;;;;;;;;;8.00;7.25;;;;;;;;5077425;27;45398;-58
2024/03/14 10:43:41;;;;;;;;;6.75;6.75;;;;;;;;5067112;27;46108;-58
2024/03/14 10:46:12;;;;;;;;;9.40;9.20;;;;;;;;5072455;27;45481;-58
2024/03/14 10:48:39;;;;;;;;;9.00;8.00;;;;;;;;5076811;27;45472;-58
2024/03/14 10:51:06;;;;;;;;;11.25;10.00;;;;;;;;5078027;27;45522;-59
2024/03/14 10:53:32;;;;;;;;;8.25;6.75;;;;;;;;5078412;27;46073;-58
2024/03/14 10:55:58;;;;;;;;;10.25;10.25;;;;;;;;5077903;27;45347;-58
2024/03/14 10:58:25;;;;;;;;;11.50;10.50;;;;;;;;5073251;27;45487;-58
2024/03/14 11:00:52;;;;;;;;;12.25;9.75;;;;;;;;5075619;27;45373;-58
2024/03/14 11:03:17;;;;;;;;;9.00;9.00;;;;;;;;5064494;27;46893;-58
2024/03/14 11:05:50;;;;;;;;;10.25;9.25;;;;;;;;5073593;27;45314;-58
2024/03/14 11:08:17;;;;;;;;;11.00;9.50;;;;;;;;5075848;27;45415;-58
2024/03/14 11:10:43;;;;;;;;;10.75;8.75;;;;;;;;5078469;27;45631;-58
2024/03/14 11:13:13;;;;;;;;;9.25;9.00;;;;;;;;5080260;27;45313;-58
2024/03/14 11:15:38;;;;;;;;;10.00;9.00;;;;;;;;5078463;27;45596;-58
2024/03/14 11:18:07;;;;;;;;;12.25;10.00;;;;;;;;5083061;27;45622;-59
2024/03/14 11:20:33;;;;;;;;;13.75;8.00;;;;;;;;5081451;27;45717;-58
2024/03/14 11:23:00;;;;;;;;;10.00;8.25;;;;;;;;5079807;27;46532;-58
2024/03/14 11:25:27;;;;;;;;;13.00;8.80;;;;;;;;5084786;27;45314;-59
2024/03/14 11:27:54;;;;;;;;;10.00;8.00;;;;;;;;5083579;27;45492;-59
2024/03/14 11:30:21;;;;;;;;;9.25;9.00;;;;;;;;5081222;27;45472;-58
2024/03/14 11:32:47;;;;;;;;;18.00;14.00;;;;;;;;5080908;27;47467;-58
2024/03/14 11:35:28;;;;;;;;;8.25;8.25;;;;;;;;5083961;27;45650;-59
2024/03/14 11:37:53;;;;;;;;;7.00;7.00;;;;;;;;5083253;27;45480;-59
2024/03/14 11:40:20;;;;;;;;;11.75;11.00;;;;;;;;5079440;27;45602;-59
2024/03/14 11:42:51;;;;;;;;;9.75;9.75;;;;;;;;5086793;27;45307;-58
2024/03/14 11:45:17;;;;;;;;;9.75;8.25;;;;;;;;5088523;27;45350;-58
2024/03/14 11:47:42;;;;;;;;;8.50;7.75;;;;;;;;5084471;27;45942;-58
2024/03/14 11:50:14;;;;;;;;;7.00;6.75;;;;;;;;5084858;27;45397;-58
2024/03/14 11:52:45;;;;;;;;;9.75;8.00;;;;;;;;5084917;27;47593;-58
2024/03/14 11:55:13;;;;;;;;;10.40;8.40;;;;;;;;5086335;27;45534;-58
2024/03/14 11:57:43;;;;;;;;;10.25;9.75;;;;;;;;5081430;27;45404;-58
2024/03/14 12:00:09;;;;;;;;;9.25;8.75;;;;;;;;5086661;27;45684;-58
2024/03/14 12:02:34;;;;;;;;;9.75;8.00;;;;;;;;5085602;27;45326;-58
2024/03/14 12:05:03;;;;;;;;;8.00;8.00;;;;;;;;5079829;27;45440;-58
2024/03/14 12:07:30;;;;;;;;;11.25;11.25;;;;;;;;5085632;27;45469;-58
2024/03/14 12:09:56;;;;;;;;;11.75;11.75;;;;;;;;5080226;27;45522;-58
2024/03/14 12:12:23;;;;;;;;;8.00;8.00;;;;;;;;5084932;27;45613;-58
2024/03/14 12:14:55;;;;;;;;;8.25;5.50;;;;;;;;5082146;27;45302;-58
2024/03/14 12:17:20;;;;;;;;;10.00;9.50;;;;;;;;5075828;27;45375;-58
2024/03/14 12:19:46;;;;;;;;;7.25;7.25;;;;;;;;5081939;27;45436;-58
2024/03/14 12:22:11;;;;;;;;;10.00;6.25;;;;;;;;5076765;27;45628;-58
2024/03/14 12:24:37;;;;;;;;;7.75;7.75;;;;;;;;5080543;27;46195;-58
2024/03/14 12:27:03;;;;;;;;;10.00;9.50;;;;;;;;5074891;27;45612;-58
2024/03/14 12:29:28;;;;;;;;;5.50;5.50;;;;;;;;5080598;27;45611;-58
2024/03/14 12:31:57;;;;;;;;;9.50;6.50;;;;;;;;5083040;27;46449;-58
2024/03/14 12:34:24;;;;;;;;;9.00;8.00;;;;;;;;5081309;27;45374;-58
2024/03/14 12:36:51;;;;;;;;;11.00;9.50;;;;;;;;5080742;27;45639;-58
2024/03/14 12:39:17;;;;;;;;;7.75;7.50;;;;;;;;5082158;27;45868;-58
2024/03/14 12:41:42;;;;;;;;;7.75;7.75;;;;;;;;5085828;27;46388;-58
2024/03/14 12:44:08;;;;;;;;;5.75;5.75;;;;;;;;5080367;27;45409;-58
2024/03/14 12:46:35;;;;;;;;;6.25;6.25;;;;;;;;5086245;27;45687;-58
2024/03/14 12:49:03;;;;;;;;;6.00;6.00;;;;;;;;5082537;27;45647;-58
2024/03/14 12:51:29;;;;;;;;;6.25;6.00;;;;;;;;5082135;27;46589;-58
2024/03/14 12:53:58;;;;;;;;;8.00;6.00;;;;;;;;5084036;27;45404;-58
2024/03/14 12:56:24;;;;;;;;;4.00;2.25;;;;;;;;5085040;27;45750;-58
2024/03/14 12:58:53;;;;;;;;;6.50;6.50;;;;;;;;5074834;27;45566;-58
2024/03/14 13:01:18;;;;;;;;;7.00;7.00;;;;;;;;5082615;27;46757;-58
2024/03/14 13:03:44;;;;;;;;;7.00;5.50;;;;;;;;5080300;27;45377;-58
2024/03/14 13:06:20;;;;;;;;;6.00;6.00;;;;;;;;5076250;27;45544;-58
2024/03/14 13:08:45;;;;;;;;;6.00;3.50;;;;;;;;5080010;27;45614;-58
2024/03/14 13:11:15;;;;;;;;;4.75;4.00;;;;;;;;5082733;27;48476;-58
2024/03/14 13:13:40;;;;;;;;;4.00;3.00;;;;;;;;5086190;27;45360;-59
2024/03/14 13:16:21;;;;;;;;;1.00;1.00;;;;;;;;5081176;27;45281;-58
2024/03/14 13:18:51;;;;;;;;;3.50;2.75;;;;;;;;5087264;27;45555;-58
2024/03/14 13:21:17;;;;;;;;;5.25;4.00;;;;;;;;5079859;27;45562;-58
2024/03/14 13:23:45;;;;;;;;;2.25;2.00;;;;;;;;5082947;27;45377;-57
2024/03/14 13:26:12;;;;;;;;;4.00;3.00;;;;;;;;5076465;27;45561;-58
2024/03/14 13:28:38;;;;;;;;;3.00;3.00;;;;;;;;5083169;27;45322;-57
2024/03/14 13:31:03;;;;;;;;;1.75;1.25;;;;;;;;5083113;27;45405;-58
2024/03/14 13:33:28;;;;;;;;;4.25;2.00;;;;;;;;5087473;27;45762;-58
2024/03/14 13:35:54;;;;;;;;;3.00;3.00;;;;;;;;5077526;27;45486;-58
2024/03/14 13:38:20;;;;;;;;;4.00;2.50;;;;;;;;5084723;27;45500;-58
2024/03/14 13:40:47;;;;;;;;;2.25;2.25;;;;;;;;5081714;27;46140;-58
2024/03/14 13:43:13;;;;;;;;;3.50;3.50;;;;;;;;5082835;27;45356;-58
2024/03/14 13:45:46;;;;;;;;;3.25;3.25;;;;;;;;5083199;27;45334;-58
2024/03/14 13:48:11;;;;;;;;;2.00;2.00;;;;;;;;5085537;27;45365;-58
2024/03/14 13:50:37;;;;;;;;;2.00;2.00;;;;;;;;5074397;27;45382;-58
2024/03/14 13:53:05;;;;;;;;;3.00;3.00;;;;;;;;5080300;27;45327;-58
2024/03/14 13:55:36;;;;;;;;;3.75;3.75;;;;;;;;5081757;27;45410;-58
2024/03/14 13:58:02;;;;;;;;;3.00;3.00;;;;;;;;5084343;27;45584;-58
2024/03/14 14:00:45;;;;;;;;;2.75;2.00;;;;;;;;5083843;27;45472;-58
2024/03/14 14:03:10;;;;;;;;;2.25;2.25;;;;;;;;5079043;27;45880;-59
2024/03/14 14:05:35;;;;;;;;;3.75;3.75;;;;;;;;5077530;27;45379;-59
2024/03/14 14:08:01;;;;;;;;;3.00;2.50;;;;;;;;5083117;27;45629;-59
2024/03/14 14:10:26;;;;;;;;;4.50;3.50;;;;;;;;5080800;27;45875;-58
2024/03/14 14:12:51;;;;;;;;;3.75;3.75;;;;;;;;5082064;27;45814;-59
2024/03/14 14:15:17;;;;;;;;;5.00;3.50;;;;;;;;5084029;27;46324;-58
2024/03/14 14:17:42;;;;;;;;;8.50;6.25;;;;;;;;5083777;27;45275;-58
2024/03/14 14:20:11;;;;;;;;;2.25;2.00;;;;;;;;5080461;27;45418;-59